Airfield :







YOU CAN JOIN US ON...

 
LOGIN :

Register | Disclaimer

   EN    FR    IT 

 









Legend :    VFR   Marginal VFR   IFR   Intensive IFR   Very Intensive IFR
Visi :
Ceiling :
>= 8 km
>= 3000ft
5 to 8 km
1000 to 3000 ft
1500m to 5 km
500 to 1000 ft
800 to 1500m
200 to 500 ft
< 800m
< 200 ft
Symbols :   Thunderstorms  Fog  Heavy snow  Heavy precipitations  Wind > 20 kt






- Airport Elevation : 20 ft
- IATA code : BOS


KBOS - General Edward Lawrence Logan International

CURRENT METAR :
  • 282054Z 20009KT 10SM FEW027 OVC038 24/18 A3014 RMK AO2 SLP206 60000 T02440178 56005

EXPIRED METARs :
  • 281954Z 22016G21KT 10SM FEW027 OVC037 26/18 A3014 RMK AO2 RAB07E09 SLP206 P0000 T02560178
  • 281854Z 19013G20KT 10SM SCT027 BKN036 24/19 A3015 RMK AO2 RAB23E32 SLP208 P0000 T02440189

TAF KBOS
Valid from the 28 at 20:00 until the 30 at 00:00 UTC


282028Z 2820/2924 22013G20KT P6SM VCSH OVC035
FM290100 20008KT P6SM VCSH BKN015
FM290500 20010KT 4SM BR VCSH OVC007
FM291500 21012G19KT P6SM BKN020
FM292000 20014G24KT P6SM SCT025 BKN080
FM292300 20011G23KT P6SM BKN025
KZBW FIR / North America



MET'MAP, your aeronautical weather chart ! - Copyright ORBIFLY December 2007 - Disclaimer

ORBIFLY MET'MAP TEAM :

Programming & Development : Alexandra Zaïnal
Concept & original design : Baudouin d'Aumeries
Assistance for programming : Marc-Olivier Méhu
Technical & hardware support : Manuel Goepfert

Contact : metmap@orbifly.com




SOURCES & CREDITS :

   NOAA